createdAt,value
2023-05-18T00:00:01.000Z,4.1
2023-05-18T00:03:33.000Z,3.8
2023-05-18T00:07:06.000Z,4.1
2023-05-18T00:10:39.000Z,3.6
2023-05-18T00:14:12.000Z,4
2023-05-18T00:17:44.000Z,3.8
2023-05-18T00:20:35.000Z,4.1
2023-05-18T00:24:08.000Z,3.9
2023-05-18T00:27:40.000Z,4
2023-05-18T00:31:13.000Z,3.7
2023-05-18T00:34:46.000Z,3.7
2023-05-18T00:38:18.000Z,3.9
2023-05-18T00:41:51.000Z,4
2023-05-18T00:45:24.000Z,4.1
2023-05-18T00:48:57.000Z,4.4
2023-05-18T00:52:29.000Z,4
2023-05-18T00:56:02.000Z,3.7
2023-05-18T00:58:53.000Z,3.4
2023-05-18T01:02:26.000Z,3.7
2023-05-18T01:05:58.000Z,4.2
2023-05-18T01:09:31.000Z,4.2
2023-05-18T01:13:04.000Z,3.7
2023-05-18T01:16:36.000Z,4.2
2023-05-18T01:20:09.000Z,4.2
2023-05-18T01:23:42.000Z,3.7
2023-05-18T01:27:14.000Z,4.3
2023-05-18T01:30:47.000Z,4
2023-05-18T01:34:20.000Z,4.1
2023-05-18T01:37:11.000Z,4.3
2023-05-18T01:40:43.000Z,3.6
2023-05-18T01:44:16.000Z,4.2
2023-05-18T01:47:48.000Z,4
2023-05-18T01:51:21.000Z,4.5
2023-05-18T01:54:54.000Z,4.2
2023-05-18T01:58:26.000Z,4.4
2023-05-18T02:01:59.000Z,4.3
2023-05-18T02:05:32.000Z,4.1
2023-05-18T02:09:05.000Z,4.6
2023-05-18T02:12:37.000Z,4.5
2023-05-18T02:15:29.000Z,4.5
2023-05-18T02:19:01.000Z,4.4
2023-05-18T02:22:34.000Z,4.1
2023-05-18T02:26:07.000Z,4.8
2023-05-18T02:29:39.000Z,4.1
2023-05-18T02:33:12.000Z,3.9
2023-05-18T02:36:44.000Z,4.2
2023-05-18T02:40:17.000Z,4
2023-05-18T02:43:50.000Z,4.3
2023-05-18T02:47:22.000Z,4.6
2023-05-18T02:50:55.000Z,4.4
2023-05-18T02:53:46.000Z,4.4
2023-05-18T02:57:19.000Z,4.5
2023-05-18T03:00:52.000Z,4.6
2023-05-18T03:04:25.000Z,4.6
2023-05-18T03:07:57.000Z,4.5
2023-05-18T03:11:30.000Z,4.4
2023-05-18T03:15:03.000Z,4.5
2023-05-18T03:18:35.000Z,4.5
2023-05-18T03:22:08.000Z,4.7
2023-05-18T03:25:41.000Z,4.7
2023-05-18T03:29:13.000Z,4.2
2023-05-18T03:32:05.000Z,5
2023-05-18T03:35:37.000Z,4.9
2023-05-18T03:39:13.000Z,4.9
2023-05-18T03:42:46.000Z,4.7
2023-05-18T03:46:18.000Z,4.6
2023-05-18T03:49:51.000Z,4.1
2023-05-18T03:53:24.000Z,4.6
2023-05-18T03:56:57.000Z,4.2
2023-05-18T04:00:30.000Z,4.3
2023-05-18T04:04:02.000Z,4.6
2023-05-18T04:07:35.000Z,4.6
2023-05-18T04:10:26.000Z,4.3
2023-05-18T04:13:59.000Z,4.3
2023-05-18T04:17:31.000Z,4.4
2023-05-18T04:21:06.000Z,4.8
2023-05-18T04:24:39.000Z,4.6
2023-05-18T04:28:12.000Z,4.2
2023-05-18T04:31:44.000Z,4.6
2023-05-18T04:35:17.000Z,4.3
2023-05-18T04:38:50.000Z,4.7
2023-05-18T04:42:22.000Z,4.8
2023-05-18T04:45:55.000Z,4.9
2023-05-18T04:48:46.000Z,4.2
2023-05-18T04:52:19.000Z,4.2
2023-05-18T04:55:52.000Z,4.7
2023-05-18T04:59:24.000Z,4.7
2023-05-18T05:02:57.000Z,4.4
2023-05-18T05:06:30.000Z,4.7
2023-05-18T05:10:02.000Z,5.2
2023-05-18T05:13:35.000Z,5.3
2023-05-18T05:17:08.000Z,5.4
2023-05-18T05:20:40.000Z,5.5
2023-05-18T05:24:13.000Z,6.3
2023-05-18T05:27:04.000Z,5.8
2023-05-18T05:30:37.000Z,5.7
2023-05-18T05:34:10.000Z,6.6
2023-05-18T05:37:42.000Z,7.4
2023-05-18T05:41:15.000Z,7.6
2023-05-18T05:44:48.000Z,5.5
2023-05-18T05:48:20.000Z,7.5
2023-05-18T05:51:53.000Z,8.2
2023-05-18T05:55:26.000Z,7.2
2023-05-18T05:58:58.000Z,7.9
2023-05-18T06:02:31.000Z,8.3
2023-05-18T06:05:23.000Z,5.9
2023-05-18T06:08:56.000Z,5.9
2023-05-18T06:12:29.000Z,5.2
2023-05-18T06:16:01.000Z,4.9
2023-05-18T06:19:34.000Z,5.5
2023-05-18T06:23:06.000Z,5
2023-05-18T06:26:39.000Z,4.9
2023-05-18T06:30:12.000Z,4.8
2023-05-18T06:33:44.000Z,5.7
2023-05-18T06:37:17.000Z,5.7
2023-05-18T06:40:50.000Z,4.7
2023-05-18T06:43:41.000Z,5.7
2023-05-18T06:47:13.000Z,6.1
2023-05-18T06:50:46.000Z,4.3
2023-05-18T06:54:19.000Z,5.1
2023-05-18T06:57:51.000Z,4.6
2023-05-18T07:01:24.000Z,4.8
2023-05-18T07:04:57.000Z,4.3
2023-05-18T07:08:29.000Z,4.2
2023-05-18T07:12:02.000Z,4.3
2023-05-18T07:15:35.000Z,4.3
2023-05-18T07:19:07.000Z,4.5
2023-05-18T07:21:59.000Z,4.2
2023-05-18T07:25:31.000Z,4.1
2023-05-18T07:29:04.000Z,3.6
2023-05-18T07:32:36.000Z,3.8
2023-05-18T07:36:09.000Z,4.2
2023-05-18T07:39:42.000Z,4.9
2023-05-18T07:43:14.000Z,3.7
2023-05-18T07:46:47.000Z,4
2023-05-18T07:50:20.000Z,5
2023-05-18T07:53:52.000Z,4.2
2023-05-18T07:57:25.000Z,3.8
2023-05-18T08:00:16.000Z,3.9
2023-05-18T08:03:49.000Z,3.7
2023-05-18T08:07:22.000Z,3.5
2023-05-18T08:10:54.000Z,3.7
2023-05-18T08:14:27.000Z,3.4
2023-05-18T08:18:10.000Z,3
2023-05-18T08:21:43.000Z,2.9
2023-05-18T08:25:15.000Z,3.2
2023-05-18T08:28:48.000Z,3.8
2023-05-18T08:32:21.000Z,3.6
2023-05-18T08:35:53.000Z,3.2
2023-05-18T08:38:45.000Z,3.1
2023-05-18T08:42:17.000Z,2.9
2023-05-18T08:45:57.000Z,3.2
2023-05-18T08:49:29.000Z,2.9
2023-05-18T08:53:02.000Z,3.1
2023-05-18T08:56:35.000Z,2.7
2023-05-18T09:00:07.000Z,2.3
2023-05-18T09:03:40.000Z,2.5
2023-05-18T09:07:13.000Z,2.6
2023-05-18T09:10:45.000Z,3.1
2023-05-18T09:14:18.000Z,3
2023-05-18T09:17:09.000Z,2.7
2023-05-18T09:20:42.000Z,2.8
2023-05-18T09:24:15.000Z,2.5
2023-05-18T09:27:50.000Z,3
2023-05-18T09:31:23.000Z,2.8
2023-05-18T09:34:55.000Z,2.3
2023-05-18T09:38:28.000Z,3.5
2023-05-18T09:42:00.000Z,3.4
2023-05-18T09:45:33.000Z,2.9
2023-05-18T09:49:06.000Z,3.1
2023-05-18T09:52:39.000Z,3.5
2023-05-18T09:55:30.000Z,3.3
2023-05-18T09:59:09.000Z,3.3
2023-05-18T10:02:42.000Z,3.4
2023-05-18T10:06:15.000Z,3
2023-05-18T10:09:47.000Z,3.1
2023-05-18T10:13:20.000Z,3.4
2023-05-18T10:16:52.000Z,2.8
2023-05-18T10:20:40.000Z,3.2
2023-05-18T10:24:13.000Z,3.2
2023-05-18T10:27:45.000Z,3.2
2023-05-18T10:31:18.000Z,3.2
2023-05-18T10:34:10.000Z,3
2023-05-18T10:37:42.000Z,3.1
2023-05-18T10:41:15.000Z,3.4
2023-05-18T10:44:48.000Z,3.1
2023-05-18T10:48:21.000Z,3.1
2023-05-18T10:51:53.000Z,2.8
2023-05-18T10:55:26.000Z,3.2
2023-05-18T10:58:59.000Z,2.6
2023-05-18T11:02:32.000Z,2.6
2023-05-18T11:06:05.000Z,2.9
2023-05-18T11:09:37.000Z,2.9
2023-05-18T11:12:28.000Z,2.4
2023-05-18T11:16:01.000Z,2.7
2023-05-18T11:19:34.000Z,3
2023-05-18T11:23:07.000Z,2.5
2023-05-18T11:26:39.000Z,3.2
2023-05-18T11:30:12.000Z,2.8
2023-05-18T11:33:45.000Z,2.5
2023-05-18T11:37:17.000Z,3.2
2023-05-18T11:40:50.000Z,3.1
2023-05-18T11:44:23.000Z,2.9
2023-05-18T11:47:58.000Z,2.6
2023-05-18T11:50:49.000Z,2.7
2023-05-18T11:54:22.000Z,2.6
2023-05-18T11:57:54.000Z,2.4
2023-05-18T12:01:27.000Z,3.1
2023-05-18T12:05:00.000Z,2.8
2023-05-18T12:08:33.000Z,2.7
2023-05-18T12:12:05.000Z,2.6
2023-05-18T12:15:38.000Z,2.7
2023-05-18T12:19:11.000Z,2.8
2023-05-18T12:22:44.000Z,2.4
2023-05-18T12:26:16.000Z,3.3
2023-05-18T12:29:08.000Z,2.8
2023-05-18T12:32:40.000Z,2.6
2023-05-18T12:36:13.000Z,2.5
2023-05-18T12:39:46.000Z,2.5
2023-05-18T12:43:19.000Z,2.3
2023-05-18T12:46:51.000Z,2.4
2023-05-18T12:50:24.000Z,2.4
2023-05-18T12:53:56.000Z,2.7
2023-05-18T12:57:30.000Z,2.7
2023-05-18T13:01:02.000Z,2.5
2023-05-18T13:04:35.000Z,2.5
2023-05-18T13:07:27.000Z,2.2
2023-05-18T13:10:59.000Z,2.6
2023-05-18T13:14:40.000Z,2.9
2023-05-18T13:18:12.000Z,2.4
2023-05-18T13:21:45.000Z,2.5
2023-05-18T13:25:18.000Z,2.7
2023-05-18T13:28:50.000Z,2.4
2023-05-18T13:32:23.000Z,2.5
2023-05-18T13:35:56.000Z,2.9
2023-05-18T13:39:29.000Z,2.2
2023-05-18T13:43:01.000Z,2.8
2023-05-18T13:45:56.000Z,2.1
2023-05-18T13:49:29.000Z,2.6
2023-05-18T13:53:02.000Z,2
2023-05-18T13:56:34.000Z,3.1
2023-05-18T14:00:07.000Z,2.6
2023-05-18T14:03:40.000Z,2.9
2023-05-18T14:07:12.000Z,2.6
2023-05-18T14:10:45.000Z,2.5
2023-05-18T14:14:17.000Z,2.6
2023-05-18T14:17:50.000Z,2.8
2023-05-18T14:21:23.000Z,3
2023-05-18T14:24:14.000Z,2.5
2023-05-18T14:27:47.000Z,2.9
2023-05-18T14:31:20.000Z,2.6
2023-05-18T14:34:53.000Z,2.3
2023-05-18T14:38:25.000Z,2.5
2023-05-18T14:41:58.000Z,2.8
2023-05-18T14:45:31.000Z,2.3
2023-05-18T14:49:04.000Z,2.5
2023-05-18T14:52:37.000Z,2.3
2023-05-18T14:56:10.000Z,2.4
2023-05-18T14:59:43.000Z,1.8
2023-05-18T15:02:34.000Z,2.5
2023-05-18T15:06:07.000Z,2.7
2023-05-18T15:09:40.000Z,2.3
2023-05-18T15:13:12.000Z,2.6
2023-05-18T15:16:45.000Z,2.4
2023-05-18T15:20:18.000Z,2.1
2023-05-18T15:23:50.000Z,2.1
2023-05-18T15:27:23.000Z,2.2
2023-05-18T15:30:56.000Z,2.4
2023-05-18T15:34:28.000Z,2.1
2023-05-18T15:38:01.000Z,2.1
2023-05-18T15:40:52.000Z,2.3
2023-05-18T15:44:25.000Z,2.1
2023-05-18T15:47:58.000Z,2.1
2023-05-18T15:51:31.000Z,2.5
2023-05-18T15:55:03.000Z,2.6
2023-05-18T15:58:36.000Z,2.1
2023-05-18T16:02:09.000Z,2.2
2023-05-18T16:05:42.000Z,2.4
2023-05-18T16:09:14.000Z,2.2
2023-05-18T16:12:47.000Z,2.4
2023-05-18T16:16:19.000Z,2.3
2023-05-18T16:19:11.000Z,2
2023-05-18T16:22:44.000Z,2.1
2023-05-18T16:26:16.000Z,2.1
2023-05-18T16:29:49.000Z,2
2023-05-18T16:33:21.000Z,1.8
2023-05-18T16:36:54.000Z,1.8
2023-05-18T16:40:27.000Z,1.8
2023-05-18T16:44:00.000Z,1.8
2023-05-18T16:47:32.000Z,2.2
2023-05-18T16:51:05.000Z,2
2023-05-18T16:54:38.000Z,2.1
2023-05-18T16:57:29.000Z,1.8
2023-05-18T17:01:02.000Z,3.1
2023-05-18T17:04:51.000Z,2.4
2023-05-18T17:08:24.000Z,3
2023-05-18T17:11:56.000Z,3
2023-05-18T17:15:29.000Z,12.3
2023-05-18T17:19:02.000Z,9.4
2023-05-18T17:22:34.000Z,3.1
2023-05-18T17:26:07.000Z,3
2023-05-18T17:29:39.000Z,2.6
2023-05-18T17:33:12.000Z,2.5
2023-05-18T17:36:03.000Z,2.6
2023-05-18T17:39:36.000Z,3.1
2023-05-18T17:43:08.000Z,7.9
2023-05-18T17:46:42.000Z,4.4
2023-05-18T17:50:15.000Z,3.8
2023-05-18T17:53:47.000Z,2.4
2023-05-18T17:57:20.000Z,1.9
2023-05-18T18:00:53.000Z,2
2023-05-18T18:04:26.000Z,1.9
2023-05-18T18:07:58.000Z,2.2
2023-05-18T18:11:31.000Z,1.8
2023-05-18T18:14:22.000Z,1.9
2023-05-18T18:17:55.000Z,1.9
2023-05-18T18:21:28.000Z,2
2023-05-18T18:25:00.000Z,2.3
2023-05-18T18:28:33.000Z,1.8
2023-05-18T18:32:06.000Z,2.2
2023-05-18T18:35:38.000Z,2
2023-05-18T18:39:11.000Z,2.1
2023-05-18T18:42:44.000Z,2
2023-05-18T18:46:16.000Z,1.8
2023-05-18T18:49:49.000Z,1.7
2023-05-18T18:52:40.000Z,2
2023-05-18T18:56:12.000Z,2
2023-05-18T18:59:48.000Z,1.8
2023-05-18T19:03:21.000Z,1.5
2023-05-18T19:06:54.000Z,1.8
2023-05-18T19:10:26.000Z,2.1
2023-05-18T19:13:59.000Z,2
2023-05-18T19:17:32.000Z,1.8
2023-05-18T19:21:05.000Z,2.1
2023-05-18T19:24:37.000Z,1.8
2023-05-18T19:28:10.000Z,1.7
2023-05-18T19:31:01.000Z,2
2023-05-18T19:34:34.000Z,2
2023-05-18T19:38:07.000Z,2
2023-05-18T19:41:39.000Z,1.9
2023-05-18T19:45:12.000Z,1.9
2023-05-18T19:48:45.000Z,2.2
2023-05-18T19:52:21.000Z,2.2
2023-05-18T19:55:54.000Z,2.2
2023-05-18T19:59:26.000Z,2.8
2023-05-18T20:02:59.000Z,3.8
2023-05-18T20:06:32.000Z,2.3
2023-05-18T20:09:23.000Z,2.2
2023-05-18T20:12:56.000Z,2.2
2023-05-18T20:16:28.000Z,2.1
2023-05-18T20:20:01.000Z,3.6
2023-05-18T20:23:34.000Z,3.9
2023-05-18T20:27:06.000Z,3.4
2023-05-18T20:30:39.000Z,2.3
2023-05-18T20:34:12.000Z,2.7
2023-05-18T20:37:44.000Z,2.7
2023-05-18T20:41:17.000Z,2.1
2023-05-18T20:44:49.000Z,2.9
2023-05-18T20:47:41.000Z,2.6
2023-05-18T20:51:13.000Z,2.4
2023-05-18T20:54:48.000Z,2.4
2023-05-18T20:58:20.000Z,2.7
2023-05-18T21:01:53.000Z,3.7
2023-05-18T21:05:26.000Z,5.2
2023-05-18T21:08:58.000Z,3.4
2023-05-18T21:12:32.000Z,2.8
2023-05-18T21:16:04.000Z,2.6
2023-05-18T21:19:37.000Z,2.3
2023-05-18T21:23:10.000Z,2.8
2023-05-18T21:26:01.000Z,2.4
2023-05-18T21:29:34.000Z,2.4
2023-05-18T21:33:06.000Z,2.9
2023-05-18T21:36:42.000Z,2.5
2023-05-18T21:40:14.000Z,2.9
2023-05-18T21:43:47.000Z,2.8
2023-05-18T21:47:20.000Z,5.7
2023-05-18T21:50:52.000Z,3.5
2023-05-18T21:54:25.000Z,4.2
2023-05-18T21:57:58.000Z,3
2023-05-18T22:01:30.000Z,2.8
2023-05-18T22:04:22.000Z,3
2023-05-18T22:07:54.000Z,2.4
2023-05-18T22:11:27.000Z,2.4
2023-05-18T22:15:00.000Z,2.4
2023-05-18T22:18:32.000Z,2.5
2023-05-18T22:22:05.000Z,2.7
2023-05-18T22:25:54.000Z,2.5
2023-05-18T22:29:27.000Z,2.5
2023-05-18T22:33:00.000Z,2.3
2023-05-18T22:36:32.000Z,2.3
2023-05-18T22:40:05.000Z,2.6
2023-05-18T22:42:56.000Z,2.3
2023-05-18T22:46:29.000Z,2.3
2023-05-18T22:50:01.000Z,2.4
2023-05-18T22:53:34.000Z,3
2023-05-18T22:57:06.000Z,2.3
2023-05-18T23:00:39.000Z,2.5
2023-05-18T23:04:12.000Z,2.1
2023-05-18T23:07:45.000Z,2.8
2023-05-18T23:11:17.000Z,2.4
2023-05-18T23:14:50.000Z,2.2
2023-05-18T23:18:23.000Z,2.7
2023-05-18T23:21:14.000Z,2.8
2023-05-18T23:24:46.000Z,2.5
2023-05-18T23:28:19.000Z,2.5
2023-05-18T23:31:51.000Z,2.7
2023-05-18T23:35:24.000Z,2.5
2023-05-18T23:38:57.000Z,2.4
2023-05-18T23:42:30.000Z,2.5
2023-05-18T23:46:03.000Z,2.3
2023-05-18T23:49:36.000Z,2.7
2023-05-18T23:53:08.000Z,2.6
2023-05-18T23:56:41.000Z,2.9
2023-05-18T23:59:32.000Z,2.8
